createdAt,value
2022-12-15T00:00:14.494Z,10
2022-12-15T00:01:14.492Z,10
2022-12-15T00:02:14.558Z,10
2022-12-15T00:03:14.562Z,11
2022-12-15T00:04:14.496Z,11
2022-12-15T00:05:14.487Z,10
2022-12-15T00:06:14.536Z,9
2022-12-15T00:07:14.508Z,10
2022-12-15T00:08:14.482Z,10
2022-12-15T00:09:15.123Z,10
2022-12-15T00:10:14.498Z,10
2022-12-15T00:11:14.512Z,9
2022-12-15T00:12:14.594Z,10
2022-12-15T00:13:14.486Z,10
2022-12-15T00:14:14.557Z,11
2022-12-15T00:15:14.522Z,9
2022-12-15T00:16:14.668Z,11
2022-12-15T00:17:14.497Z,11
2022-12-15T00:18:14.501Z,10
2022-12-15T00:19:14.484Z,11
2022-12-15T00:20:14.487Z,9
2022-12-15T00:21:14.493Z,11
2022-12-15T00:22:14.492Z,12
2022-12-15T00:23:14.493Z,10
2022-12-15T00:25:14.483Z,13
2022-12-15T00:26:14.515Z,12
2022-12-15T00:27:14.493Z,10
2022-12-15T00:28:14.482Z,12
2022-12-15T00:29:14.476Z,12
2022-12-15T00:30:14.499Z,11
2022-12-15T00:31:14.588Z,10
2022-12-15T00:32:14.488Z,10
2022-12-15T00:33:14.566Z,8
2022-12-15T00:34:14.498Z,10
2022-12-15T00:35:14.504Z,11
2022-12-15T00:36:14.483Z,10
2022-12-15T00:37:14.502Z,10
2022-12-15T00:38:14.482Z,9
2022-12-15T00:39:14.476Z,10
2022-12-15T00:40:14.485Z,10
2022-12-15T00:41:14.472Z,11
2022-12-15T00:42:14.478Z,10
2022-12-15T00:43:14.481Z,8
2022-12-15T00:44:20.370Z,10
2022-12-15T00:45:14.512Z,10
2022-12-15T00:46:14.539Z,11
2022-12-15T00:47:14.594Z,11
2022-12-15T00:48:14.471Z,9
2022-12-15T00:49:14.484Z,10
2022-12-15T00:50:14.489Z,10
2022-12-15T00:51:14.486Z,9
2022-12-15T00:52:14.476Z,9
2022-12-15T00:53:14.475Z,9
2022-12-15T00:54:18.041Z,10
2022-12-15T00:55:14.468Z,9
2022-12-15T00:56:14.586Z,10
2022-12-15T00:57:14.470Z,8
2022-12-15T00:58:14.503Z,10
2022-12-15T00:59:14.486Z,11
2022-12-15T01:00:14.480Z,10
2022-12-15T01:01:14.513Z,12
2022-12-15T01:02:14.631Z,12
2022-12-15T01:03:14.609Z,13
2022-12-15T01:04:14.640Z,12
2022-12-15T01:05:14.564Z,10
2022-12-15T01:06:14.469Z,12
2022-12-15T01:07:14.476Z,12
2022-12-15T01:08:14.476Z,11
2022-12-15T01:09:14.463Z,11
2022-12-15T01:10:14.469Z,9
2022-12-15T01:11:14.472Z,12
2022-12-15T01:12:14.481Z,10
2022-12-15T01:13:14.767Z,13
2022-12-15T01:14:14.472Z,13
2022-12-15T01:15:14.490Z,14
2022-12-15T01:16:14.532Z,14
2022-12-15T01:17:14.495Z,14
2022-12-15T01:18:14.499Z,13
2022-12-15T01:19:14.513Z,12
2022-12-15T01:20:14.462Z,13
2022-12-15T01:21:14.459Z,13
2022-12-15T01:22:14.485Z,13
2022-12-15T01:23:14.494Z,13
2022-12-15T01:24:14.470Z,11
2022-12-15T01:25:14.496Z,13
2022-12-15T01:26:14.464Z,10
2022-12-15T01:27:14.459Z,11
2022-12-15T01:28:14.467Z,11
2022-12-15T01:29:14.462Z,12
2022-12-15T01:30:14.466Z,11
2022-12-15T01:31:14.742Z,12
2022-12-15T01:32:14.465Z,11
2022-12-15T01:33:14.454Z,11
2022-12-15T01:34:14.480Z,11
2022-12-15T01:36:14.475Z,11
2022-12-15T01:37:14.471Z,9
2022-12-15T01:38:14.468Z,9
2022-12-15T01:39:14.474Z,12
2022-12-15T01:40:14.469Z,12
2022-12-15T01:41:14.461Z,12
2022-12-15T01:42:14.460Z,10
2022-12-15T01:43:14.461Z,13
2022-12-15T01:44:14.470Z,13
2022-12-15T01:45:14.462Z,13
2022-12-15T01:46:14.534Z,12
2022-12-15T01:47:14.560Z,12
2022-12-15T01:48:14.469Z,11
2022-12-15T01:49:14.457Z,11
2022-12-15T01:50:14.483Z,12
2022-12-15T01:51:14.464Z,12
2022-12-15T01:52:14.464Z,13
2022-12-15T01:53:14.451Z,13
2022-12-15T01:54:14.464Z,9
2022-12-15T01:55:14.483Z,10
2022-12-15T01:56:14.459Z,11
2022-12-15T01:57:14.499Z,12
2022-12-15T01:58:14.491Z,11
2022-12-15T01:59:14.527Z,12
2022-12-15T02:00:14.455Z,11
2022-12-15T02:01:14.541Z,11
2022-12-15T02:02:14.540Z,9
2022-12-15T02:03:14.572Z,11
2022-12-15T02:04:14.508Z,12
2022-12-15T02:05:14.453Z,10
2022-12-15T02:06:14.467Z,14
2022-12-15T02:07:14.472Z,13
2022-12-15T02:08:14.484Z,10
2022-12-15T02:09:14.443Z,14
2022-12-15T02:10:14.457Z,12
2022-12-15T02:11:14.454Z,9
2022-12-15T02:12:14.452Z,11
2022-12-15T02:13:14.442Z,12
2022-12-15T02:14:14.463Z,13
2022-12-15T02:15:14.508Z,12
2022-12-15T02:16:14.532Z,12
2022-12-15T02:17:14.460Z,10
2022-12-15T02:18:14.773Z,10
2022-12-15T02:19:14.457Z,11
2022-12-15T02:20:14.452Z,10
2022-12-15T02:21:14.450Z,11
2022-12-15T02:22:14.484Z,10
2022-12-15T02:23:14.446Z,11
2022-12-15T02:24:14.455Z,12
2022-12-15T02:25:14.455Z,12
2022-12-15T02:26:14.467Z,11
2022-12-15T02:27:14.440Z,9
2022-12-15T02:28:14.454Z,8
2022-12-15T02:29:14.551Z,10
2022-12-15T02:30:14.449Z,9
2022-12-15T02:31:14.503Z,9
2022-12-15T02:32:14.451Z,11
2022-12-15T02:33:14.462Z,11
2022-12-15T02:34:14.476Z,11
2022-12-15T02:35:14.443Z,10
2022-12-15T02:36:14.446Z,11
2022-12-15T02:37:14.436Z,10
2022-12-15T02:38:14.449Z,9
2022-12-15T02:39:14.491Z,9
2022-12-15T02:40:14.460Z,11
2022-12-15T02:41:14.444Z,11
2022-12-15T02:42:14.429Z,9
2022-12-15T02:43:14.434Z,9
2022-12-15T02:44:14.473Z,12
2022-12-15T02:45:14.453Z,11
2022-12-15T02:46:14.553Z,12
2022-12-15T02:47:14.445Z,9
2022-12-15T02:48:14.575Z,10
2022-12-15T02:49:14.599Z,12
2022-12-15T02:50:14.436Z,11
2022-12-15T02:51:14.487Z,9
2022-12-15T02:52:14.481Z,9
2022-12-15T02:53:14.436Z,9
2022-12-15T02:54:14.447Z,10
2022-12-15T02:55:14.458Z,9
2022-12-15T02:56:14.482Z,11
2022-12-15T02:57:14.440Z,11
2022-12-15T02:58:14.430Z,11
2022-12-15T02:59:14.443Z,8
2022-12-15T03:00:14.440Z,8
2022-12-15T03:01:14.500Z,10
2022-12-15T03:02:14.585Z,8
2022-12-15T03:03:14.546Z,10
2022-12-15T03:04:14.429Z,10
2022-12-15T03:05:14.449Z,9
2022-12-15T03:06:14.446Z,9
2022-12-15T03:07:14.433Z,9
2022-12-15T03:08:14.511Z,10
2022-12-15T03:09:14.449Z,10
2022-12-15T03:10:14.446Z,10
2022-12-15T03:11:14.514Z,10
2022-12-15T03:12:14.431Z,12
2022-12-15T03:13:14.433Z,9
2022-12-15T03:14:14.442Z,13
2022-12-15T03:15:14.433Z,10
2022-12-15T03:16:14.469Z,13
2022-12-15T03:17:14.428Z,12
2022-12-15T03:18:14.427Z,12
2022-12-15T03:19:14.439Z,9
2022-12-15T03:20:14.560Z,10
2022-12-15T03:21:14.439Z,12
2022-12-15T03:22:14.430Z,10
2022-12-15T03:23:14.438Z,10
2022-12-15T03:24:14.430Z,11
2022-12-15T03:25:14.445Z,11
2022-12-15T03:26:14.427Z,12
2022-12-15T03:27:14.428Z,12
2022-12-15T03:28:14.427Z,12
2022-12-15T03:29:14.437Z,12
2022-12-15T03:30:14.509Z,10
2022-12-15T03:31:14.453Z,12
2022-12-15T03:32:14.491Z,11
2022-12-15T03:33:14.433Z,11
2022-12-15T03:34:14.421Z,11
2022-12-15T03:35:14.468Z,11
2022-12-15T03:36:14.416Z,8
2022-12-15T03:37:14.436Z,11
2022-12-15T03:38:14.492Z,11
2022-12-15T03:39:14.430Z,10
2022-12-15T03:40:14.425Z,9
2022-12-15T03:41:14.408Z,10
2022-12-15T03:42:14.424Z,10
2022-12-15T03:43:14.426Z,10
2022-12-15T03:44:14.450Z,8
2022-12-15T03:45:14.426Z,8
2022-12-15T03:46:14.504Z,10
2022-12-15T03:47:14.738Z,10
2022-12-15T03:48:14.420Z,8
2022-12-15T03:49:14.419Z,9
2022-12-15T03:50:14.431Z,10
2022-12-15T03:51:14.564Z,11
2022-12-15T03:52:14.427Z,8
2022-12-15T03:53:14.438Z,10
2022-12-15T03:54:14.413Z,11
2022-12-15T03:55:14.416Z,10
2022-12-15T03:56:14.431Z,7
2022-12-15T03:57:14.421Z,8
2022-12-15T03:58:14.417Z,10
2022-12-15T03:59:14.428Z,10
2022-12-15T04:00:14.459Z,9
2022-12-15T04:01:14.431Z,10
2022-12-15T04:02:14.691Z,7
2022-12-15T04:03:14.423Z,10
2022-12-15T04:04:14.429Z,9
2022-12-15T04:05:14.408Z,7
2022-12-15T04:06:14.400Z,11
2022-12-15T04:07:14.424Z,8
2022-12-15T04:08:14.421Z,8
2022-12-15T04:09:14.398Z,10
2022-12-15T04:10:14.463Z,8
2022-12-15T04:11:24.402Z,10
2022-12-15T04:12:14.408Z,9
2022-12-15T04:13:14.404Z,9
2022-12-15T04:14:14.457Z,9
2022-12-15T04:15:14.423Z,8
2022-12-15T04:16:17.929Z,7
2022-12-15T04:17:14.426Z,9
2022-12-15T04:18:14.429Z,10
2022-12-15T04:19:14.413Z,8
2022-12-15T04:20:14.407Z,10
2022-12-15T04:21:14.408Z,7
2022-12-15T04:22:17.805Z,8
2022-12-15T04:23:14.412Z,10
2022-12-15T04:24:14.425Z,10
2022-12-15T04:25:14.518Z,8
2022-12-15T04:26:14.403Z,9
2022-12-15T04:27:14.429Z,10
2022-12-15T04:28:14.393Z,8
2022-12-15T04:29:14.413Z,8
2022-12-15T04:30:14.422Z,9
2022-12-15T04:31:14.470Z,10
2022-12-15T04:32:14.481Z,9
2022-12-15T04:33:14.395Z,9
2022-12-15T04:34:14.393Z,10
2022-12-15T04:35:14.406Z,6
2022-12-15T04:36:14.408Z,8
2022-12-15T04:37:14.399Z,9
2022-12-15T04:38:14.400Z,11
2022-12-15T04:39:14.399Z,11
2022-12-15T04:40:14.392Z,9
2022-12-15T04:41:14.400Z,9
2022-12-15T04:42:14.409Z,10
2022-12-15T04:43:14.412Z,12
2022-12-15T04:44:14.402Z,9
2022-12-15T04:45:20.313Z,10
2022-12-15T04:46:14.464Z,11
2022-12-15T04:47:14.398Z,11
2022-12-15T04:48:14.400Z,9
2022-12-15T04:49:14.394Z,9
2022-12-15T04:50:14.387Z,10
2022-12-15T04:51:14.407Z,11
2022-12-15T04:52:14.393Z,11
2022-12-15T04:53:14.429Z,9
2022-12-15T04:54:14.393Z,11
2022-12-15T04:55:14.397Z,11
2022-12-15T04:56:18.493Z,9
2022-12-15T04:57:14.400Z,11
2022-12-15T04:58:14.400Z,11
2022-12-15T04:59:14.383Z,11
2022-12-15T05:00:14.401Z,10
2022-12-15T05:01:14.444Z,10
2022-12-15T05:02:14.535Z,10
2022-12-15T05:03:18.399Z,11
2022-12-15T05:04:14.420Z,10
2022-12-15T05:05:14.378Z,10
2022-12-15T05:06:14.401Z,10
2022-12-15T05:07:14.404Z,10
2022-12-15T05:08:14.414Z,11
2022-12-15T05:09:14.425Z,11
2022-12-15T05:10:15.321Z,10
2022-12-15T05:11:30.439Z,11
2022-12-15T05:12:14.401Z,11
2022-12-15T05:13:14.388Z,11
2022-12-15T05:14:14.392Z,10
2022-12-15T05:15:14.411Z,9
2022-12-15T05:16:14.420Z,12
2022-12-15T05:17:14.456Z,11
2022-12-15T05:18:14.380Z,10
2022-12-15T05:19:14.406Z,10
2022-12-15T05:20:14.374Z,10
2022-12-15T05:21:14.383Z,11
2022-12-15T05:22:14.387Z,10
2022-12-15T05:23:14.388Z,10
2022-12-15T05:24:14.412Z,10
2022-12-15T05:25:14.406Z,10
2022-12-15T05:26:14.388Z,11
2022-12-15T05:27:14.395Z,10
2022-12-15T05:28:14.386Z,10
2022-12-15T05:29:14.387Z,11
2022-12-15T05:30:14.405Z,10
2022-12-15T05:31:14.471Z,12
2022-12-15T05:32:14.403Z,11
2022-12-15T05:33:14.378Z,10
2022-12-15T05:34:14.372Z,12
2022-12-15T05:36:14.390Z,12
2022-12-15T05:37:14.383Z,11
2022-12-15T05:38:14.378Z,11
2022-12-15T05:39:14.409Z,12
2022-12-15T05:40:14.390Z,12
2022-12-15T05:41:14.703Z,11
2022-12-15T05:42:14.383Z,12
2022-12-15T05:43:14.373Z,11
2022-12-15T05:44:14.375Z,12
2022-12-15T05:45:14.387Z,14
2022-12-15T05:46:14.407Z,12
2022-12-15T05:47:14.396Z,12
2022-12-15T05:48:14.378Z,12
2022-12-15T05:49:14.382Z,12
2022-12-15T05:50:14.483Z,11
2022-12-15T05:51:14.370Z,12
2022-12-15T05:52:14.371Z,14
2022-12-15T05:53:14.377Z,11
2022-12-15T05:54:14.366Z,11
2022-12-15T05:55:14.396Z,13
2022-12-15T05:56:14.378Z,14
2022-12-15T05:57:14.444Z,13
2022-12-15T05:58:14.368Z,13
2022-12-15T05:59:14.371Z,13
2022-12-15T06:00:14.377Z,12
2022-12-15T06:01:14.383Z,12
2022-12-15T06:02:14.456Z,13
2022-12-15T06:03:14.442Z,12
2022-12-15T06:04:14.458Z,14
2022-12-15T06:05:14.383Z,13
2022-12-15T06:06:14.366Z,13
2022-12-15T06:07:14.393Z,14
2022-12-15T06:08:14.366Z,13
2022-12-15T06:09:14.372Z,13
2022-12-15T06:10:14.387Z,12
2022-12-15T06:11:36.442Z,13
2022-12-15T06:12:14.369Z,15
2022-12-15T06:13:14.369Z,14
2022-12-15T06:14:14.370Z,15
2022-12-15T06:15:14.388Z,17
2022-12-15T06:16:14.419Z,16
2022-12-15T06:17:14.370Z,14
2022-12-15T06:18:14.382Z,15
2022-12-15T06:19:14.366Z,16
2022-12-15T06:20:14.376Z,13
2022-12-15T06:21:14.373Z,13
2022-12-15T06:22:14.374Z,15
2022-12-15T06:23:14.366Z,15
2022-12-15T06:24:14.381Z,12
2022-12-15T06:25:14.377Z,14
2022-12-15T06:26:14.394Z,13
2022-12-15T06:27:14.375Z,14
2022-12-15T06:28:14.360Z,13
2022-12-15T06:29:14.379Z,13
2022-12-15T06:30:14.391Z,15
2022-12-15T06:31:14.396Z,15
2022-12-15T06:32:14.373Z,14
2022-12-15T06:33:14.378Z,14
2022-12-15T06:34:14.361Z,13
2022-12-15T06:35:14.361Z,14
2022-12-15T06:36:14.418Z,15
2022-12-15T06:37:14.366Z,15
2022-12-15T06:38:14.374Z,13
2022-12-15T06:39:14.368Z,14
2022-12-15T06:40:14.367Z,14
2022-12-15T06:41:14.361Z,16
2022-12-15T06:42:14.357Z,13
2022-12-15T06:43:14.357Z,14
2022-12-15T06:44:14.362Z,13
2022-12-15T06:45:14.371Z,15
2022-12-15T06:46:14.399Z,14
2022-12-15T06:47:14.400Z,14
2022-12-15T06:48:14.348Z,13
2022-12-15T06:49:14.366Z,13
2022-12-15T06:50:14.365Z,15
2022-12-15T06:51:17.137Z,14
2022-12-15T06:52:14.360Z,13
2022-12-15T06:53:14.366Z,14
2022-12-15T06:54:14.365Z,15
2022-12-15T06:55:14.347Z,17
2022-12-15T06:56:14.444Z,14
2022-12-15T06:57:14.437Z,13
2022-12-15T06:58:14.339Z,14
2022-12-15T06:59:14.344Z,14
2022-12-15T07:00:14.363Z,14
2022-12-15T07:01:14.347Z,14
2022-12-15T07:02:14.555Z,14
2022-12-15T07:03:14.599Z,14
2022-12-15T07:04:14.436Z,14
2022-12-15T07:05:14.349Z,14
2022-12-15T07:06:14.352Z,15
2022-12-15T07:07:14.345Z,15
2022-12-15T07:08:14.354Z,15
2022-12-15T07:09:14.361Z,14
2022-12-15T07:10:14.350Z,16
2022-12-15T07:12:14.349Z,21
2022-12-15T07:13:14.357Z,18
2022-12-15T07:14:14.370Z,15
2022-12-15T07:15:14.361Z,15
2022-12-15T07:16:14.399Z,15
2022-12-15T07:18:14.353Z,14
2022-12-15T07:19:14.369Z,14
2022-12-15T07:20:14.366Z,14
2022-12-15T07:21:14.350Z,15
2022-12-15T07:22:14.360Z,13
2022-12-15T07:23:14.420Z,16
2022-12-15T07:24:14.367Z,14
2022-12-15T07:25:14.525Z,15
2022-12-15T07:26:14.343Z,15
2022-12-15T07:27:14.347Z,14
2022-12-15T07:28:14.390Z,16
2022-12-15T07:29:19.520Z,14
2022-12-15T07:30:14.350Z,16
2022-12-15T07:31:14.374Z,15
2022-12-15T07:32:14.350Z,14
2022-12-15T07:33:14.394Z,14
2022-12-15T07:34:14.347Z,15
2022-12-15T07:35:14.402Z,16
2022-12-15T07:36:14.342Z,15
2022-12-15T07:37:14.362Z,14
2022-12-15T07:38:14.345Z,14
2022-12-15T07:39:14.344Z,15
2022-12-15T07:40:14.345Z,14
2022-12-15T07:41:14.354Z,14
2022-12-15T07:42:14.341Z,15
2022-12-15T07:43:14.355Z,14
2022-12-15T07:44:14.351Z,13
2022-12-15T07:45:14.350Z,16
2022-12-15T07:46:14.554Z,14
2022-12-15T07:47:14.391Z,14
2022-12-15T07:48:14.349Z,13
2022-12-15T07:49:14.342Z,14
2022-12-15T07:50:14.337Z,14
2022-12-15T07:51:19.265Z,14
2022-12-15T07:52:14.336Z,14
2022-12-15T07:53:14.375Z,13
2022-12-15T07:54:14.360Z,15
2022-12-15T07:55:14.381Z,14
2022-12-15T07:56:14.339Z,14
2022-12-15T07:57:14.334Z,16
2022-12-15T07:58:14.357Z,13
2022-12-15T07:59:14.368Z,13
2022-12-15T08:00:14.337Z,13
2022-12-15T08:01:14.496Z,13
2022-12-15T08:02:14.553Z,15
2022-12-15T08:03:14.479Z,13
2022-12-15T08:04:14.339Z,13
2022-12-15T08:05:14.332Z,13
2022-12-15T08:06:14.344Z,12
2022-12-15T08:07:14.348Z,13
2022-12-15T08:08:15.511Z,15
2022-12-15T08:09:14.338Z,13
2022-12-15T08:10:14.336Z,14
2022-12-15T08:11:14.363Z,14
2022-12-15T08:12:14.333Z,13
2022-12-15T08:13:31.408Z,12
2022-12-15T08:14:17.641Z,13
2022-12-15T08:15:14.332Z,15
2022-12-15T08:16:14.491Z,14
2022-12-15T08:17:14.337Z,13
2022-12-15T08:18:14.342Z,15
2022-12-15T08:19:14.336Z,16
2022-12-15T08:20:14.336Z,14
2022-12-15T08:21:14.332Z,15
2022-12-15T08:22:14.324Z,15
2022-12-15T08:23:14.331Z,15
2022-12-15T08:24:14.369Z,14
2022-12-15T08:25:14.335Z,13
2022-12-15T08:26:14.327Z,15
2022-12-15T08:27:14.334Z,16
2022-12-15T08:28:14.340Z,13
2022-12-15T08:30:14.369Z,13
2022-12-15T08:31:14.510Z,13
2022-12-15T08:32:14.437Z,14
2022-12-15T08:33:14.334Z,15
2022-12-15T08:34:14.349Z,15
2022-12-15T08:35:38.789Z,13
2022-12-15T08:36:14.323Z,13
2022-12-15T08:37:14.330Z,14
2022-12-15T08:38:14.326Z,14
2022-12-15T08:39:14.328Z,14
2022-12-15T08:40:14.334Z,14
2022-12-15T08:41:14.321Z,15
2022-12-15T08:42:14.336Z,19
2022-12-15T08:43:14.343Z,15
2022-12-15T08:44:14.325Z,14
2022-12-15T08:45:14.321Z,13
2022-12-15T08:46:14.432Z,16
2022-12-15T08:47:14.342Z,13
2022-12-15T08:48:14.318Z,14
2022-12-15T08:49:19.555Z,14
2022-12-15T08:50:14.324Z,14
2022-12-15T08:51:14.376Z,14
2022-12-15T08:52:14.324Z,13
2022-12-15T08:53:30.834Z,15
2022-12-15T08:54:14.326Z,13
2022-12-15T08:55:19.344Z,12
2022-12-15T08:56:14.361Z,15
2022-12-15T08:57:14.324Z,13
2022-12-15T08:58:14.325Z,13
2022-12-15T08:59:14.313Z,14
2022-12-15T09:00:14.323Z,14
2022-12-15T09:01:20.524Z,14
2022-12-15T09:02:14.427Z,14
2022-12-15T09:03:14.333Z,16
2022-12-15T09:04:14.404Z,12
2022-12-15T09:05:14.355Z,15
2022-12-15T09:06:14.326Z,12
2022-12-15T09:07:14.334Z,14
2022-12-15T09:08:14.322Z,13
2022-12-15T09:09:14.333Z,14
2022-12-15T09:10:14.326Z,12
2022-12-15T09:11:14.324Z,16
2022-12-15T09:12:14.319Z,13
2022-12-15T09:13:14.308Z,12
2022-12-15T09:14:14.319Z,13
2022-12-15T09:15:14.337Z,14
2022-12-15T09:16:14.340Z,13
2022-12-15T09:17:14.346Z,13
2022-12-15T09:18:14.342Z,13
2022-12-15T09:19:14.327Z,12
2022-12-15T09:20:17.808Z,13
2022-12-15T09:21:14.339Z,13
2022-12-15T09:22:14.314Z,13
2022-12-15T09:23:14.323Z,12
2022-12-15T09:24:20.599Z,12
2022-12-15T09:25:14.323Z,12
2022-12-15T09:26:14.449Z,12
2022-12-15T09:27:14.312Z,13
2022-12-15T09:28:14.323Z,13
2022-12-15T09:29:14.318Z,12
2022-12-15T09:30:14.304Z,13
2022-12-15T09:31:14.367Z,13
2022-12-15T09:32:24.341Z,14
2022-12-15T09:33:14.307Z,15
2022-12-15T09:34:14.324Z,15
2022-12-15T09:35:14.318Z,13
2022-12-15T09:36:14.328Z,13
2022-12-15T09:37:14.313Z,13
2022-12-15T09:38:14.348Z,14
2022-12-15T09:39:14.319Z,13
2022-12-15T09:40:14.319Z,14
2022-12-15T09:41:14.327Z,14
2022-12-15T09:42:14.441Z,15
2022-12-15T09:43:33.870Z,12
2022-12-15T09:44:14.313Z,12
2022-12-15T09:45:14.311Z,13
2022-12-15T09:46:14.325Z,14
2022-12-15T09:47:14.342Z,13
2022-12-15T09:48:14.309Z,17
2022-12-15T09:49:14.306Z,14
2022-12-15T09:50:14.332Z,14
2022-12-15T09:51:14.308Z,15
2022-12-15T09:52:14.303Z,13
2022-12-15T09:53:45.701Z,15
2022-12-15T09:54:14.311Z,12
2022-12-15T09:55:14.346Z,12
2022-12-15T09:56:14.321Z,11
2022-12-15T09:57:14.309Z,11
2022-12-15T09:58:14.330Z,12
2022-12-15T09:59:14.322Z,14
2022-12-15T10:00:14.318Z,13
2022-12-15T10:01:14.322Z,11
2022-12-15T10:02:14.624Z,14
2022-12-15T10:03:14.470Z,11
2022-12-15T10:04:14.381Z,11
2022-12-15T10:05:14.314Z,11
2022-12-15T10:06:17.077Z,12
2022-12-15T10:07:14.309Z,12
2022-12-15T10:08:14.326Z,13
2022-12-15T10:09:14.312Z,12
2022-12-15T10:10:14.312Z,12
2022-12-15T10:11:14.348Z,12
2022-12-15T10:12:14.303Z,12
2022-12-15T10:13:14.316Z,12
2022-12-15T10:14:14.310Z,15
2022-12-15T10:15:14.294Z,13
2022-12-15T10:16:14.396Z,12
2022-12-15T10:17:14.305Z,14
2022-12-15T10:18:14.308Z,14
2022-12-15T10:19:14.312Z,15
2022-12-15T10:20:14.323Z,14
2022-12-15T10:21:14.291Z,14
2022-12-15T10:22:14.303Z,14
2022-12-15T10:23:14.356Z,15
2022-12-15T10:24:14.313Z,16
2022-12-15T10:25:14.320Z,13
2022-12-15T10:26:14.319Z,13
2022-12-15T10:27:14.313Z,13
2022-12-15T10:28:14.304Z,13
2022-12-15T10:29:14.313Z,15
2022-12-15T10:30:14.426Z,13
2022-12-15T10:31:14.385Z,13
2022-12-15T10:32:30.499Z,14
2022-12-15T10:33:14.319Z,12
2022-12-15T10:34:14.371Z,11
2022-12-15T10:35:14.301Z,13
2022-12-15T10:36:14.308Z,14
2022-12-15T10:37:14.305Z,13
2022-12-15T10:38:14.299Z,14
2022-12-15T10:39:14.548Z,14
2022-12-15T10:40:14.297Z,14
2022-12-15T10:41:14.312Z,16
2022-12-15T10:42:14.309Z,13
2022-12-15T10:43:14.307Z,13
2022-12-15T10:44:14.298Z,13
2022-12-15T10:45:14.311Z,13
2022-12-15T10:46:14.506Z,14
2022-12-15T10:47:14.297Z,16
2022-12-15T10:48:14.314Z,12
2022-12-15T10:49:14.297Z,13
2022-12-15T10:50:16.319Z,13
2022-12-15T10:51:14.305Z,15
2022-12-15T10:52:14.301Z,15
2022-12-15T10:53:14.297Z,16
2022-12-15T10:54:14.304Z,17
2022-12-15T10:55:14.338Z,16
2022-12-15T10:56:14.293Z,16
2022-12-15T10:57:14.370Z,18
2022-12-15T10:58:14.295Z,15
2022-12-15T10:59:14.302Z,14
2022-12-15T11:00:14.292Z,13
2022-12-15T11:01:14.357Z,17
2022-12-15T11:02:19.504Z,14
2022-12-15T11:03:14.457Z,14
2022-12-15T11:04:14.359Z,14
2022-12-15T11:05:14.344Z,15
2022-12-15T11:06:14.281Z,14
2022-12-15T11:07:14.579Z,14
2022-12-15T11:08:14.313Z,15
2022-12-15T11:09:14.299Z,12
2022-12-15T11:10:14.299Z,13
2022-12-15T11:11:14.300Z,15
2022-12-15T11:12:14.524Z,14
2022-12-15T11:13:14.287Z,13
2022-12-15T11:14:14.285Z,13
2022-12-15T11:15:14.294Z,13
2022-12-15T11:16:14.301Z,12
2022-12-15T11:17:14.328Z,13
2022-12-15T11:18:14.315Z,13
2022-12-15T11:19:14.278Z,14
2022-12-15T11:20:14.296Z,12
2022-12-15T11:21:14.291Z,13
2022-12-15T11:22:14.318Z,15
2022-12-15T11:23:14.302Z,16
2022-12-15T11:24:14.296Z,27
2022-12-15T11:25:14.297Z,28
2022-12-15T11:26:14.291Z,19
2022-12-15T11:27:14.312Z,17
2022-12-15T11:28:14.295Z,14
2022-12-15T11:29:14.299Z,14
2022-12-15T11:30:14.296Z,15
2022-12-15T11:31:14.291Z,13
2022-12-15T11:32:36.428Z,13
2022-12-15T11:33:14.294Z,14
2022-12-15T11:34:14.280Z,13
2022-12-15T11:35:14.342Z,14
2022-12-15T11:36:14.336Z,15
2022-12-15T11:37:14.286Z,14
2022-12-15T11:38:14.315Z,13
2022-12-15T11:39:14.334Z,13
2022-12-15T11:40:14.287Z,15
2022-12-15T11:41:14.286Z,13
2022-12-15T11:42:14.275Z,13
2022-12-15T11:43:14.314Z,14
2022-12-15T11:44:14.294Z,15
2022-12-15T11:45:14.286Z,15
2022-12-15T11:46:14.278Z,15
2022-12-15T11:47:14.288Z,15
2022-12-15T11:48:14.303Z,16
2022-12-15T11:49:14.279Z,16
2022-12-15T11:50:14.293Z,16
2022-12-15T11:51:14.285Z,17
2022-12-15T11:52:14.287Z,16
2022-12-15T11:53:14.299Z,15
2022-12-15T11:54:14.500Z,15
2022-12-15T11:55:14.278Z,14
2022-12-15T11:56:14.311Z,17
2022-12-15T11:57:14.285Z,14
2022-12-15T11:58:14.278Z,14
2022-12-15T11:59:14.284Z,14
2022-12-15T12:00:14.273Z,15
2022-12-15T12:01:14.301Z,14
2022-12-15T12:02:14.346Z,14
2022-12-15T12:03:14.359Z,13
2022-12-15T12:04:14.285Z,14
2022-12-15T12:05:14.291Z,14
2022-12-15T12:06:14.275Z,16
2022-12-15T12:07:14.328Z,15
2022-12-15T12:08:14.297Z,15
2022-12-15T12:09:14.379Z,15
2022-12-15T12:10:14.285Z,16
2022-12-15T12:11:14.427Z,15
2022-12-15T12:12:14.298Z,16
2022-12-15T12:13:14.284Z,15
2022-12-15T12:14:14.277Z,15
2022-12-15T12:15:14.287Z,15
2022-12-15T12:16:14.292Z,16
2022-12-15T12:17:14.284Z,15
2022-12-15T12:18:14.296Z,14
2022-12-15T12:19:14.301Z,16
2022-12-15T12:20:14.274Z,16
2022-12-15T12:21:14.289Z,14
2022-12-15T12:22:14.294Z,15
2022-12-15T12:23:14.282Z,15
2022-12-15T12:24:14.286Z,14
2022-12-15T12:25:14.281Z,15
2022-12-15T12:26:14.275Z,15
2022-12-15T12:27:14.282Z,14
2022-12-15T12:28:14.292Z,15
2022-12-15T12:29:14.284Z,14
2022-12-15T12:30:14.267Z,14
2022-12-15T12:31:14.282Z,14
2022-12-15T12:33:14.279Z,14
2022-12-15T12:34:14.271Z,14
2022-12-15T12:35:30.423Z,14
2022-12-15T12:36:14.275Z,15
2022-12-15T12:37:14.277Z,13
2022-12-15T12:38:14.308Z,14
2022-12-15T12:39:14.275Z,14
2022-12-15T12:40:14.275Z,14
2022-12-15T12:41:14.269Z,13
2022-12-15T12:42:14.283Z,13
2022-12-15T12:43:14.554Z,15
2022-12-15T12:44:14.276Z,14
2022-12-15T12:45:14.276Z,14
2022-12-15T12:46:14.275Z,14
2022-12-15T12:47:14.278Z,12
2022-12-15T12:48:14.293Z,15
2022-12-15T12:49:14.277Z,14
2022-12-15T12:50:14.260Z,14
2022-12-15T12:51:14.319Z,15
2022-12-15T12:52:14.272Z,14
2022-12-15T12:53:14.280Z,14
2022-12-15T12:54:14.264Z,14
2022-12-15T12:55:14.884Z,14
2022-12-15T12:56:14.269Z,13
2022-12-15T12:57:14.265Z,15
2022-12-15T12:58:14.275Z,14
2022-12-15T12:59:14.306Z,14
2022-12-15T13:00:14.346Z,14
2022-12-15T13:01:14.371Z,15
2022-12-15T13:02:14.372Z,16
2022-12-15T13:03:14.297Z,16
2022-12-15T13:04:14.272Z,17
2022-12-15T13:05:14.268Z,16
2022-12-15T13:06:14.267Z,16
2022-12-15T13:07:15.380Z,15
2022-12-15T13:08:14.410Z,14
2022-12-15T13:09:14.291Z,15
2022-12-15T13:10:14.348Z,15
2022-12-15T13:11:14.293Z,15
2022-12-15T13:12:34.304Z,15
2022-12-15T13:13:14.250Z,13
2022-12-15T13:14:21.013Z,14
2022-12-15T13:15:14.252Z,13
2022-12-15T13:16:14.251Z,14
2022-12-15T13:17:26.588Z,14
2022-12-15T13:18:14.281Z,14
2022-12-15T13:19:14.286Z,14
2022-12-15T13:20:14.317Z,14
2022-12-15T13:21:14.269Z,14
2022-12-15T13:22:14.265Z,14
2022-12-15T13:23:14.288Z,16
2022-12-15T13:24:14.263Z,13
2022-12-15T13:25:14.290Z,14
2022-12-15T13:26:14.257Z,14
2022-12-15T13:27:14.305Z,14
2022-12-15T13:28:14.270Z,15
2022-12-15T13:29:14.267Z,14
2022-12-15T13:30:14.283Z,14
2022-12-15T13:31:14.362Z,13
2022-12-15T13:32:14.349Z,14
2022-12-15T13:33:14.271Z,14
2022-12-15T13:34:14.255Z,14
2022-12-15T13:35:14.262Z,15
2022-12-15T13:36:14.267Z,14
2022-12-15T13:37:14.537Z,14
2022-12-15T13:38:14.275Z,14
2022-12-15T13:39:14.349Z,14
2022-12-15T13:40:14.326Z,14
2022-12-15T13:41:14.264Z,15
2022-12-15T13:43:14.270Z,16
2022-12-15T13:44:14.282Z,13
2022-12-15T13:45:14.258Z,13
2022-12-15T13:46:14.314Z,15
2022-12-15T13:47:14.272Z,14
2022-12-15T13:48:14.361Z,14
2022-12-15T13:49:14.288Z,14
2022-12-15T13:50:14.266Z,13
2022-12-15T13:51:14.265Z,14
2022-12-15T13:52:14.260Z,14
2022-12-15T13:53:19.240Z,13
2022-12-15T13:54:14.253Z,14
2022-12-15T13:55:14.258Z,14
2022-12-15T13:56:14.277Z,17
2022-12-15T13:57:14.251Z,15
2022-12-15T13:58:14.263Z,14
2022-12-15T13:59:14.265Z,14
2022-12-15T14:00:14.255Z,16
2022-12-15T14:01:14.247Z,16
2022-12-15T14:02:14.333Z,14
2022-12-15T14:03:14.281Z,13
2022-12-15T14:04:14.255Z,14
2022-12-15T14:05:14.259Z,14
2022-12-15T14:06:14.246Z,14
2022-12-15T14:07:14.261Z,15
2022-12-15T14:08:14.265Z,15
2022-12-15T14:09:14.263Z,13
2022-12-15T14:10:14.256Z,13
2022-12-15T14:11:45.890Z,14
2022-12-15T14:12:14.256Z,15
2022-12-15T14:13:16.055Z,15
2022-12-15T14:14:14.259Z,14
2022-12-15T14:15:14.263Z,15
2022-12-15T14:16:14.423Z,15
2022-12-15T14:17:14.275Z,15
2022-12-15T14:18:14.271Z,17
2022-12-15T14:19:14.252Z,15
2022-12-15T14:20:14.263Z,16
2022-12-15T14:21:14.247Z,13
2022-12-15T14:22:14.239Z,14
2022-12-15T14:23:14.262Z,14
2022-12-15T14:24:37.426Z,14
2022-12-15T14:25:14.248Z,15
2022-12-15T14:26:14.251Z,14